createdAt,value
2019-03-24T00:02:02.445Z,8.48
2019-03-24T00:04:30.468Z,8.51
2019-03-24T00:06:58.556Z,8.46
2019-03-24T00:09:26.611Z,8.46
2019-03-24T00:11:54.560Z,8.47
2019-03-24T00:14:22.573Z,8.49
2019-03-24T00:16:50.620Z,8.54
2019-03-24T00:19:18.603Z,8.44
2019-03-24T00:21:46.644Z,8.45
2019-03-24T00:24:14.697Z,8.46
2019-03-24T00:26:42.777Z,8.55
2019-03-24T00:29:10.755Z,8.72
2019-03-24T00:31:38.847Z,8.59
2019-03-24T00:34:07.118Z,8.63
2019-03-24T00:36:35.294Z,8.57
2019-03-24T00:39:04.611Z,8.58
2019-03-24T00:41:32.661Z,8.50
2019-03-24T00:44:00.770Z,8.47
2019-03-24T00:46:28.806Z,8.49
2019-03-24T00:48:56.764Z,8.55
2019-03-24T00:51:24.808Z,8.55
2019-03-24T00:53:52.786Z,8.67
2019-03-24T00:56:20.805Z,8.47
2019-03-24T00:58:48.766Z,8.60
2019-03-24T01:01:16.819Z,8.54
2019-03-24T01:03:44.817Z,8.57
2019-03-24T01:06:12.821Z,8.43
2019-03-24T01:08:40.907Z,8.33
2019-03-24T01:11:08.911Z,8.43
2019-03-24T01:13:36.918Z,8.39
2019-03-24T01:16:05.075Z,8.35
2019-03-24T01:18:33.074Z,8.41
2019-03-24T01:21:01.018Z,8.21
2019-03-24T01:23:29.046Z,8.15
2019-03-24T01:25:57.046Z,7.95
2019-03-24T01:28:25.001Z,7.88
2019-03-24T01:30:53.005Z,7.78
2019-03-24T01:33:20.961Z,7.67
2019-03-24T01:35:48.949Z,7.66
2019-03-24T01:38:17.111Z,7.58
2019-03-24T01:40:45.184Z,7.58
2019-03-24T01:43:13.259Z,7.58
2019-03-24T01:45:41.272Z,7.57
2019-03-24T01:48:09.260Z,7.56
2019-03-24T01:50:37.209Z,7.53
2019-03-24T01:53:05.161Z,7.55
2019-03-24T01:55:33.144Z,7.61
2019-03-24T01:58:01.148Z,7.62
2019-03-24T02:00:29.225Z,7.53
2019-03-24T02:02:57.197Z,7.54
2019-03-24T02:05:25.241Z,7.60
2019-03-24T02:07:53.262Z,7.42
2019-03-24T02:10:21.278Z,7.61
2019-03-24T02:12:49.272Z,7.56
2019-03-24T02:15:17.401Z,7.51
2019-03-24T02:17:45.363Z,7.28
2019-03-24T02:20:13.584Z,7.26
2019-03-24T02:22:41.697Z,7.46
2019-03-24T02:25:10.067Z,7.44
2019-03-24T02:27:37.968Z,7.40
2019-03-24T02:30:07.601Z,7.46
2019-03-24T02:32:35.620Z,7.74
2019-03-24T02:35:03.874Z,7.63
2019-03-24T02:37:31.990Z,7.69
2019-03-24T02:40:00.312Z,7.68
2019-03-24T02:42:28.537Z,7.73
2019-03-24T02:44:56.544Z,7.78
2019-03-24T02:47:24.507Z,7.84
2019-03-24T02:49:52.534Z,7.81
2019-03-24T02:52:20.537Z,7.78
2019-03-24T02:54:48.524Z,7.73
2019-03-24T02:57:16.528Z,7.58
2019-03-24T02:59:44.539Z,7.58
2019-03-24T03:02:12.461Z,7.56
2019-03-24T03:04:40.452Z,7.47
2019-03-24T03:07:08.584Z,7.39
2019-03-24T03:09:36.587Z,7.28
2019-03-24T03:12:04.744Z,7.23
2019-03-24T03:14:32.764Z,7.31
2019-03-24T03:17:00.766Z,7.34
2019-03-24T03:19:28.756Z,7.31
2019-03-24T03:21:57.121Z,7.23
2019-03-24T03:24:25.141Z,6.95
2019-03-24T03:26:53.190Z,7.02
2019-03-24T03:29:21.292Z,7.11
2019-03-24T03:31:49.294Z,7.39
2019-03-24T03:34:17.346Z,7.35
2019-03-24T03:36:45.281Z,7.42
2019-03-24T03:39:13.342Z,7.28
2019-03-24T03:41:41.420Z,7.05
2019-03-24T03:44:09.361Z,7.10
2019-03-24T03:46:37.399Z,7.01
2019-03-24T03:49:05.592Z,7.10
2019-03-24T03:51:33.546Z,7.01
2019-03-24T03:54:01.542Z,6.88
2019-03-24T03:56:29.639Z,6.72
2019-03-24T03:58:57.604Z,6.53
2019-03-24T04:01:25.647Z,6.31
2019-03-24T04:03:53.744Z,6.18
2019-03-24T04:06:21.796Z,6.08
2019-03-24T04:08:49.840Z,6.19
2019-03-24T04:11:17.811Z,6.13
2019-03-24T04:13:45.825Z,6.06
2019-03-24T04:16:13.707Z,5.99
2019-03-24T04:18:41.714Z,6.12
2019-03-24T04:21:09.739Z,6.09
2019-03-24T04:23:37.878Z,6.12
2019-03-24T04:26:05.888Z,6.04
2019-03-24T04:28:33.873Z,6.13
2019-03-24T04:31:01.900Z,6.12
2019-03-24T04:33:29.894Z,6.17
2019-03-24T04:35:58.206Z,6.21
2019-03-24T04:38:26.289Z,6.20
2019-03-24T04:40:54.386Z,6.29
2019-03-24T04:43:22.594Z,6.28
2019-03-24T04:45:50.503Z,6.35
2019-03-24T04:48:18.517Z,6.44
2019-03-24T04:50:46.564Z,6.41
2019-03-24T04:53:14.650Z,6.54
2019-03-24T04:55:43.724Z,6.66
2019-03-24T04:58:11.757Z,6.65
2019-03-24T05:00:40.549Z,6.62
2019-03-24T05:03:08.516Z,6.84
2019-03-24T05:05:38.328Z,7.05
2019-03-24T05:08:08.384Z,7.17
2019-03-24T05:10:36.427Z,7.42
2019-03-24T05:13:04.517Z,7.32
2019-03-24T05:15:32.800Z,7.34
2019-03-24T05:18:00.841Z,7.45
2019-03-24T05:20:28.848Z,7.57
2019-03-24T05:22:56.869Z,7.68
2019-03-24T05:25:24.834Z,7.68
2019-03-24T05:27:52.832Z,7.77
2019-03-24T05:30:20.846Z,7.76
2019-03-24T05:32:48.870Z,7.89
2019-03-24T05:35:16.918Z,8.08
2019-03-24T05:37:45.061Z,8.21
2019-03-24T05:40:13.159Z,8.16
2019-03-24T05:42:41.233Z,8.15
2019-03-24T05:45:09.925Z,8.46
2019-03-24T05:47:37.899Z,8.16
2019-03-24T05:50:06.503Z,8.42
2019-03-24T05:52:34.551Z,8.32
2019-03-24T05:55:02.599Z,8.14
2019-03-24T05:57:30.611Z,8.21
2019-03-24T05:59:58.663Z,8.00
2019-03-24T06:02:26.660Z,7.86
2019-03-24T06:04:54.713Z,7.72
2019-03-24T06:07:24.256Z,7.65
2019-03-24T06:09:52.365Z,7.82
2019-03-24T06:12:22.435Z,8.05
2019-03-24T06:14:50.583Z,8.07
2019-03-24T06:17:18.550Z,8.06
2019-03-24T06:19:46.642Z,8.25
2019-03-24T06:22:14.675Z,8.34
2019-03-24T06:24:42.783Z,8.59
2019-03-24T06:27:10.886Z,8.51
2019-03-24T06:29:38.820Z,8.71
2019-03-24T06:32:06.829Z,8.80
2019-03-24T06:34:34.952Z,8.75
2019-03-24T06:37:03.432Z,8.76
2019-03-24T06:39:31.489Z,8.90
2019-03-24T06:41:59.652Z,8.97
2019-03-24T06:44:27.639Z,9.21
2019-03-24T06:46:55.828Z,9.42
2019-03-24T06:49:23.829Z,9.51
2019-03-24T06:51:51.851Z,9.34
2019-03-24T06:54:21.250Z,9.26
2019-03-24T06:56:49.286Z,9.34
2019-03-24T06:59:17.279Z,9.36
2019-03-24T07:01:45.476Z,9.49
2019-03-24T07:04:13.587Z,9.72
2019-03-24T07:06:41.771Z,10.19
2019-03-24T07:09:09.993Z,10.30
2019-03-24T07:11:37.942Z,10.35
2019-03-24T07:14:06.017Z,10.41
2019-03-24T07:16:34.044Z,10.64
2019-03-24T07:19:02.232Z,10.74
2019-03-24T07:21:30.213Z,10.91
2019-03-24T07:24:00.529Z,11.24
2019-03-24T07:26:28.337Z,11.03
2019-03-24T07:28:56.363Z,11.04
2019-03-24T07:31:24.399Z,11.12
2019-03-24T07:33:52.409Z,11.28
2019-03-24T07:36:20.567Z,11.52
2019-03-24T07:38:48.572Z,11.18
2019-03-24T07:41:16.631Z,11.17
2019-03-24T07:43:44.651Z,11.02
2019-03-24T07:46:14.005Z,10.92
2019-03-24T07:48:42.475Z,10.90
2019-03-24T07:51:11.589Z,11.19
2019-03-24T07:53:39.626Z,11.57
2019-03-24T07:56:07.631Z,11.48
2019-03-24T07:58:37.147Z,11.91
2019-03-24T08:01:05.426Z,11.97
2019-03-24T08:03:33.507Z,12.03
2019-03-24T08:06:01.447Z,12.08
2019-03-24T08:08:29.588Z,11.91
2019-03-24T08:11:00.185Z,11.92
2019-03-24T08:13:28.141Z,12.14
2019-03-24T08:15:56.163Z,12.24
2019-03-24T08:18:29.892Z,12.25
2019-03-24T08:20:54.242Z,12.21
2019-03-24T08:23:22.264Z,12.10
2019-03-24T08:25:50.648Z,12.40
2019-03-24T08:28:18.785Z,12.94
2019-03-24T08:30:46.815Z,13.43
2019-03-24T08:33:14.837Z,13.59
2019-03-24T08:35:42.971Z,13.87
2019-03-24T08:38:11.186Z,14.31
2019-03-24T08:40:39.324Z,14.73
2019-03-24T08:43:07.444Z,14.86
2019-03-24T08:45:35.424Z,14.88
2019-03-24T08:48:03.749Z,14.89
2019-03-24T08:50:31.882Z,14.88
2019-03-24T08:52:59.967Z,15.32
2019-03-24T08:55:28.170Z,15.48
2019-03-24T08:57:56.298Z,15.76
2019-03-24T09:00:30.654Z,15.68
2019-03-24T09:02:55.026Z,15.35
2019-03-24T09:05:23.146Z,15.11
2019-03-24T09:07:51.240Z,15.14
2019-03-24T09:10:19.439Z,15.46
2019-03-24T09:12:47.406Z,15.96
2019-03-24T09:15:15.535Z,15.94
2019-03-24T09:17:43.662Z,16.08
2019-03-24T09:20:14.273Z,16.09
2019-03-24T09:22:42.203Z,16.51
2019-03-24T09:25:10.897Z,16.25
2019-03-24T09:27:39.103Z,16.38
2019-03-24T09:30:14.093Z,16.38
2019-03-24T09:32:42.169Z,16.24
2019-03-24T09:35:10.420Z,15.80
2019-03-24T09:37:38.455Z,15.57
2019-03-24T09:40:09.392Z,15.67
2019-03-24T09:42:37.421Z,15.95
2019-03-24T09:45:05.525Z,16.51
2019-03-24T09:47:33.537Z,16.76
2019-03-24T09:50:01.817Z,17.00
2019-03-24T09:52:30.002Z,17.35
2019-03-24T09:54:58.062Z,17.18
2019-03-24T09:57:26.168Z,16.79
2019-03-24T09:59:54.191Z,16.84
2019-03-24T10:02:22.190Z,16.92
2019-03-24T10:04:50.323Z,17.08
2019-03-24T10:07:18.322Z,17.15
2019-03-24T10:09:46.426Z,17.39
2019-03-24T10:12:14.640Z,17.71
2019-03-24T10:14:42.756Z,17.75
2019-03-24T10:17:10.810Z,17.81
2019-03-24T10:19:38.867Z,17.64
2019-03-24T10:22:06.899Z,17.58
2019-03-24T10:24:34.891Z,17.92
2019-03-24T10:27:04.403Z,17.74
2019-03-24T10:29:32.425Z,17.82
2019-03-24T10:32:00.859Z,17.66
2019-03-24T10:34:29.353Z,17.27
2019-03-24T10:36:57.675Z,17.14
2019-03-24T10:39:25.687Z,17.08
2019-03-24T10:41:53.800Z,16.97
2019-03-24T10:44:21.826Z,17.48
2019-03-24T10:46:49.873Z,17.59
2019-03-24T10:49:24.689Z,17.64
2019-03-24T10:51:47.827Z,17.52
2019-03-24T10:54:16.188Z,17.40
2019-03-24T10:56:44.689Z,17.23
2019-03-24T10:59:12.777Z,17.06
2019-03-24T11:01:41.056Z,16.91
2019-03-24T11:04:09.273Z,17.01
2019-03-24T11:06:37.349Z,17.26
2019-03-24T11:09:06.022Z,17.45
2019-03-24T11:11:34.045Z,17.55
2019-03-24T11:14:02.135Z,17.59
2019-03-24T11:16:30.207Z,17.99
2019-03-24T11:18:58.260Z,18.35
2019-03-24T11:21:26.329Z,18.48
2019-03-24T11:23:54.385Z,18.36
2019-03-24T11:26:22.518Z,17.87
2019-03-24T11:28:50.527Z,18.12
2019-03-24T11:31:18.579Z,18.40
2019-03-24T11:33:46.579Z,18.39
2019-03-24T11:36:14.622Z,18.74
2019-03-24T11:38:42.868Z,18.81
2019-03-24T11:41:10.927Z,18.93
2019-03-24T11:43:38.871Z,19.13
2019-03-24T11:46:06.849Z,18.74
2019-03-24T11:48:35.057Z,18.69
2019-03-24T11:51:03.052Z,18.71
2019-03-24T11:53:31.155Z,18.82
2019-03-24T11:55:59.244Z,19.31
2019-03-24T11:58:28.674Z,19.29
2019-03-24T12:00:56.808Z,19.38
2019-03-24T12:03:25.480Z,19.50
2019-03-24T12:05:53.788Z,19.18
2019-03-24T12:08:22.358Z,18.85
2019-03-24T12:10:51.068Z,18.65
2019-03-24T12:13:19.110Z,18.64
2019-03-24T12:15:47.855Z,18.47
2019-03-24T12:18:16.316Z,18.17
2019-03-24T12:20:44.385Z,18.30
2019-03-24T12:23:12.494Z,18.60
2019-03-24T12:25:40.469Z,18.93
2019-03-24T12:28:08.463Z,19.20
2019-03-24T12:30:36.517Z,18.98
2019-03-24T12:33:04.499Z,18.95
2019-03-24T12:35:32.501Z,18.81
2019-03-24T12:38:00.638Z,18.65
2019-03-24T12:40:29.276Z,18.78
2019-03-24T12:42:57.357Z,18.63
2019-03-24T12:45:25.399Z,18.52
2019-03-24T12:47:53.456Z,18.48
2019-03-24T12:50:30.889Z,18.77
2019-03-24T12:52:51.532Z,19.26
2019-03-24T12:55:19.576Z,19.54
2019-03-24T12:57:47.647Z,19.76
2019-03-24T13:00:31.179Z,19.65
2019-03-24T13:02:59.670Z,19.71
2019-03-24T13:05:28.033Z,19.91
2019-03-24T13:07:58.815Z,20.21
2019-03-24T13:10:27.106Z,20.51
2019-03-24T13:12:55.328Z,20.40
2019-03-24T13:15:23.593Z,19.57
2019-03-24T13:17:51.971Z,19.36
2019-03-24T13:20:35.225Z,19.21
2019-03-24T13:22:50.114Z,18.74
2019-03-24T13:25:18.406Z,18.54
2019-03-24T13:27:46.529Z,18.70
2019-03-24T13:30:14.812Z,18.66
2019-03-24T13:32:42.859Z,18.61
2019-03-24T13:35:11.045Z,18.84
2019-03-24T13:37:39.254Z,19.00
2019-03-24T13:40:07.715Z,18.92
2019-03-24T13:42:35.806Z,19.08
2019-03-24T13:45:05.692Z,19.07
2019-03-24T13:47:33.728Z,18.82
2019-03-24T13:50:02.236Z,18.94
2019-03-24T13:52:30.651Z,18.98
2019-03-24T13:54:58.619Z,18.87
2019-03-24T13:57:26.682Z,19.18
2019-03-24T13:59:54.944Z,19.16
2019-03-24T14:02:23.079Z,19.07
2019-03-24T14:04:51.100Z,19.09
2019-03-24T14:07:19.207Z,19.39
2019-03-24T14:09:47.240Z,19.49
2019-03-24T14:12:15.534Z,19.69
2019-03-24T14:14:43.758Z,19.70
2019-03-24T14:17:11.759Z,19.54
2019-03-24T14:19:39.801Z,19.43
2019-03-24T14:22:07.914Z,19.10
2019-03-24T14:24:35.887Z,19.13
2019-03-24T14:27:04.084Z,19.39
2019-03-24T14:29:32.207Z,19.35
2019-03-24T14:32:00.261Z,18.97
2019-03-24T14:34:28.323Z,19.25
2019-03-24T14:36:56.517Z,19.42
2019-03-24T14:39:24.642Z,19.68
2019-03-24T14:41:52.752Z,19.51
2019-03-24T14:44:21.872Z,19.71
2019-03-24T14:46:49.890Z,20.02
2019-03-24T14:49:18.037Z,20.40
2019-03-24T14:51:46.082Z,20.62
2019-03-24T14:54:14.203Z,20.73
2019-03-24T14:56:42.236Z,20.43
2019-03-24T14:59:10.336Z,19.96
2019-03-24T15:01:38.274Z,19.95
2019-03-24T15:04:06.297Z,19.74
2019-03-24T15:06:34.348Z,19.24
2019-03-24T15:09:04.297Z,19.13
2019-03-24T15:11:32.368Z,18.87
2019-03-24T15:14:00.531Z,18.83
2019-03-24T15:16:28.624Z,18.99
2019-03-24T15:18:56.741Z,18.99
2019-03-24T15:21:24.754Z,19.00
2019-03-24T15:23:52.751Z,18.90
2019-03-24T15:26:20.788Z,18.81
2019-03-24T15:28:48.817Z,18.82
2019-03-24T15:31:16.886Z,18.72
2019-03-24T15:33:44.977Z,18.65
2019-03-24T15:36:13.028Z,18.74
2019-03-24T15:38:41.166Z,18.68
2019-03-24T15:41:09.153Z,18.64
2019-03-24T15:43:37.728Z,18.56
2019-03-24T15:46:05.782Z,18.67
2019-03-24T15:48:33.970Z,18.48
2019-03-24T15:51:02.153Z,18.46
2019-03-24T15:53:30.103Z,18.65
2019-03-24T15:55:58.165Z,18.59
2019-03-24T15:58:26.441Z,18.48
2019-03-24T16:00:54.577Z,18.39
2019-03-24T16:03:22.529Z,18.27
2019-03-24T16:05:50.606Z,18.31
2019-03-24T16:08:18.713Z,18.12
2019-03-24T16:10:46.771Z,17.81
2019-03-24T16:13:14.771Z,17.65
2019-03-24T16:15:42.944Z,17.50
2019-03-24T16:18:11.094Z,17.57
2019-03-24T16:20:39.081Z,17.38
2019-03-24T16:23:07.114Z,17.37
2019-03-24T16:25:35.138Z,17.45
2019-03-24T16:28:03.184Z,17.40
2019-03-24T16:30:31.246Z,17.09
2019-03-24T16:32:59.242Z,16.92
2019-03-24T16:35:27.222Z,16.76
2019-03-24T16:37:55.244Z,16.70
2019-03-24T16:40:23.420Z,16.66
2019-03-24T16:42:51.482Z,16.77
2019-03-24T16:45:19.937Z,16.61
2019-03-24T16:47:48.065Z,16.35
2019-03-24T16:50:17.422Z,16.20
2019-03-24T16:52:45.432Z,16.09
2019-03-24T16:55:13.479Z,16.04
2019-03-24T16:57:42.296Z,16.01
2019-03-24T17:00:11.549Z,16.03
2019-03-24T17:02:39.654Z,15.91
2019-03-24T17:05:07.975Z,15.76
2019-03-24T17:07:36.280Z,15.62
2019-03-24T17:10:04.807Z,15.51
2019-03-24T17:12:32.950Z,15.79
2019-03-24T17:15:01.180Z,15.85
2019-03-24T17:17:29.389Z,15.65
2019-03-24T17:19:57.422Z,15.57
2019-03-24T17:22:25.472Z,15.59
2019-03-24T17:24:53.839Z,15.41
2019-03-24T17:27:21.930Z,15.28
2019-03-24T17:29:50.301Z,15.21
2019-03-24T17:32:18.475Z,15.28
2019-03-24T17:34:47.491Z,15.18
2019-03-24T17:37:15.685Z,15.18
2019-03-24T17:39:43.916Z,15.03
2019-03-24T17:42:11.938Z,14.98
2019-03-24T17:44:40.023Z,15.13
2019-03-24T17:47:08.172Z,15.42
2019-03-24T17:49:36.782Z,15.48
2019-03-24T17:52:05.746Z,15.38
2019-03-24T17:54:34.904Z,15.35
2019-03-24T17:57:03.418Z,15.24
2019-03-24T17:59:31.505Z,15.32
2019-03-24T18:01:59.577Z,15.39
2019-03-24T18:04:27.859Z,15.26
2019-03-24T18:06:55.933Z,15.18
2019-03-24T18:09:24.005Z,15.20
2019-03-24T18:11:52.091Z,15.12
2019-03-24T18:14:20.064Z,15.07
2019-03-24T18:16:48.539Z,15.18
2019-03-24T18:19:16.965Z,15.23
2019-03-24T18:21:45.209Z,15.10
2019-03-24T18:24:13.617Z,15.12
2019-03-24T18:26:41.715Z,15.15
2019-03-24T18:29:10.065Z,15.09
2019-03-24T18:31:38.198Z,15.08
2019-03-24T18:34:06.381Z,14.94
2019-03-24T18:36:34.428Z,14.93
2019-03-24T18:39:04.394Z,15.06
2019-03-24T18:41:32.735Z,14.99
2019-03-24T18:44:01.076Z,14.74
2019-03-24T18:46:29.105Z,14.54
2019-03-24T18:48:57.128Z,14.63
2019-03-24T18:51:25.462Z,14.64
2019-03-24T18:53:53.643Z,14.40
2019-03-24T18:56:21.627Z,14.37
2019-03-24T18:58:49.644Z,14.17
2019-03-24T19:01:17.702Z,14.15
2019-03-24T19:03:45.679Z,13.99
2019-03-24T19:06:13.725Z,13.94
2019-03-24T19:08:41.738Z,13.84
2019-03-24T19:11:09.848Z,13.55
2019-03-24T19:13:37.806Z,13.50
2019-03-24T19:16:06.017Z,13.65
2019-03-24T19:18:35.293Z,13.54
2019-03-24T19:21:04.890Z,13.42
2019-03-24T19:23:33.297Z,13.23
2019-03-24T19:26:01.266Z,13.28
2019-03-24T19:28:29.752Z,13.21
2019-03-24T19:30:57.674Z,13.39
2019-03-24T19:33:25.686Z,13.15
2019-03-24T19:35:55.254Z,13.16
2019-03-24T19:38:25.199Z,12.98
2019-03-24T19:40:53.741Z,13.03
2019-03-24T19:43:24.853Z,12.90
2019-03-24T19:45:52.792Z,12.86
2019-03-24T19:48:21.290Z,13.07
2019-03-24T19:50:49.470Z,13.16
2019-03-24T19:53:17.393Z,12.95
2019-03-24T19:55:45.407Z,12.71
2019-03-24T19:58:13.768Z,12.57
2019-03-24T20:00:41.799Z,12.43
2019-03-24T20:03:09.832Z,12.49
2019-03-24T20:05:38.174Z,12.19
2019-03-24T20:08:06.191Z,12.36
2019-03-24T20:10:34.727Z,12.04
2019-03-24T20:13:02.800Z,12.09
2019-03-24T20:15:30.882Z,11.88
2019-03-24T20:17:59.052Z,11.83
2019-03-24T20:20:27.368Z,11.66
2019-03-24T20:22:57.018Z,11.47
2019-03-24T20:25:25.389Z,11.26
2019-03-24T20:27:53.795Z,11.39
2019-03-24T20:30:22.440Z,11.35
2019-03-24T20:32:51.080Z,11.52
2019-03-24T20:35:19.329Z,11.30
2019-03-24T20:37:48.636Z,11.35
2019-03-24T20:40:17.115Z,11.46
2019-03-24T20:42:45.205Z,11.57
2019-03-24T20:45:14.139Z,11.73
2019-03-24T20:47:42.322Z,11.51
2019-03-24T20:50:11.077Z,11.51
2019-03-24T20:52:39.227Z,11.53
2019-03-24T20:55:08.403Z,11.61
2019-03-24T20:57:36.720Z,11.43
2019-03-24T21:00:07.043Z,11.11
2019-03-24T21:02:35.269Z,10.97
2019-03-24T21:05:03.468Z,10.79
2019-03-24T21:07:31.490Z,10.73
2019-03-24T21:09:59.547Z,10.94
2019-03-24T21:12:27.523Z,11.16
2019-03-24T21:14:55.744Z,11.30
2019-03-24T21:17:23.905Z,11.25
2019-03-24T21:19:51.984Z,11.00
2019-03-24T21:22:19.974Z,10.94
2019-03-24T21:24:48.196Z,10.89
2019-03-24T21:27:16.728Z,10.72
2019-03-24T21:29:44.774Z,10.76
2019-03-24T21:32:12.850Z,10.78
2019-03-24T21:34:40.815Z,10.70
2019-03-24T21:37:08.921Z,10.68
2019-03-24T21:39:36.982Z,10.43
2019-03-24T21:42:05.315Z,10.46
2019-03-24T21:44:33.422Z,10.45
2019-03-24T21:47:01.463Z,10.44
2019-03-24T21:49:29.441Z,10.45
2019-03-24T21:51:57.530Z,10.43
2019-03-24T21:54:25.955Z,10.41
2019-03-24T21:56:54.522Z,10.49
2019-03-24T21:59:22.828Z,10.44
2019-03-24T22:01:50.827Z,10.23
2019-03-24T22:04:19.333Z,10.25
2019-03-24T22:06:47.343Z,10.19
2019-03-24T22:09:15.314Z,10.21
2019-03-24T22:11:43.408Z,10.07
2019-03-24T22:14:11.418Z,10.18
2019-03-24T22:16:39.561Z,10.12
2019-03-24T22:19:07.574Z,10.23
2019-03-24T22:21:35.608Z,10.26
2019-03-24T22:24:03.612Z,10.15
2019-03-24T22:26:31.700Z,10.30
2019-03-24T22:28:59.684Z,10.28
2019-03-24T22:31:27.770Z,10.34
2019-03-24T22:33:55.766Z,10.30
2019-03-24T22:36:23.777Z,10.30
2019-03-24T22:38:51.811Z,10.19
2019-03-24T22:41:20.014Z,9.80
2019-03-24T22:43:48.001Z,9.62
2019-03-24T22:46:16.050Z,9.84
2019-03-24T22:48:44.029Z,9.91
2019-03-24T22:51:12.051Z,10.12
2019-03-24T22:53:40.172Z,10.18
2019-03-24T22:56:08.892Z,10.19
2019-03-24T22:58:36.910Z,9.99
2019-03-24T23:01:04.919Z,9.88
2019-03-24T23:03:32.926Z,9.75
2019-03-24T23:06:01.085Z,9.36
2019-03-24T23:08:29.071Z,9.32
2019-03-24T23:10:57.086Z,9.32
2019-03-24T23:13:25.024Z,9.33
2019-03-24T23:15:53.021Z,9.16
2019-03-24T23:18:21.142Z,9.21
2019-03-24T23:20:49.186Z,9.28
2019-03-24T23:23:17.359Z,9.40
2019-03-24T23:25:45.497Z,9.32
2019-03-24T23:28:13.601Z,9.26
2019-03-24T23:30:42.153Z,9.36
2019-03-24T23:33:10.417Z,9.10
2019-03-24T23:35:38.499Z,8.96
2019-03-24T23:38:06.436Z,8.91
2019-03-24T23:40:34.521Z,8.96
2019-03-24T23:43:02.582Z,9.04
2019-03-24T23:45:30.614Z,9.08
2019-03-24T23:47:58.610Z,9.08
2019-03-24T23:50:26.535Z,9.15
2019-03-24T23:52:54.542Z,8.98
2019-03-24T23:55:22.577Z,8.59
2019-03-24T23:57:50.527Z,8.29
